Time;durP1;ratioP1;P1;durP2;ratioP2;P2;SDS_P1;SDS_P2;PMS_P1;PMS_P2;Temp;Humidity;BMP_temperature;BMP_pressure;BME280_temperature;BME280_humidity;BME280_pressure;Samples;Min_cycle;Max_cycle;Signal;HPM_P1;HPM_P2
2022/03/08 00:01:21;;;;;;;12.67;8.70;;;0.00;99.90;;;;;;5102309;28;20675;-41
2022/03/08 00:03:50;;;;;;;12.40;8.20;;;0.00;99.90;;;;;;5089718;28;20199;-44
2022/03/08 00:06:17;;;;;;;12.43;8.50;;;0.00;99.90;;;;;;5102118;28;20205;-46
2022/03/08 00:08:44;;;;;;;15.13;9.77;;;0.00;99.90;;;;;;5103519;28;20823;-44
2022/03/08 00:11:11;;;;;;;14.80;9.67;;;0.00;99.90;;;;;;5103542;28;20210;-41
2022/03/08 00:13:38;;;;;;;18.67;10.47;;;-0.10;99.90;;;;;;5093270;28;20284;-44
2022/03/08 00:16:05;;;;;;;14.03;9.00;;;-0.10;99.90;;;;;;5102328;28;20217;-43
2022/03/08 00:18:32;;;;;;;13.43;9.33;;;-0.10;99.90;;;;;;5080772;28;20203;-42
2022/03/08 00:21:01;;;;;;;13.80;9.40;;;-0.10;99.90;;;;;;5103896;28;20191;-42
2022/03/08 00:23:27;;;;;;;13.67;9.83;;;-0.20;99.90;;;;;;5099990;28;20204;-43
2022/03/08 00:25:55;;;;;;;14.53;9.00;;;-0.20;99.90;;;;;;5103672;28;20657;-42
2022/03/08 00:28:22;;;;;;;13.63;9.17;;;-0.20;99.90;;;;;;5094983;28;20210;-44
2022/03/08 00:30:49;;;;;;;13.60;9.37;;;-0.20;99.90;;;;;;5103305;28;20498;-44
2022/03/08 00:33:16;;;;;;;13.53;9.07;;;-0.30;99.90;;;;;;5092684;28;20226;-46
2022/03/08 00:35:42;;;;;;;14.50;8.93;;;-0.20;99.90;;;;;;5096561;28;20185;-45
2022/03/08 00:38:10;;;;;;;16.30;8.93;;;-0.20;99.90;;;;;;5093898;28;20206;-43
2022/03/08 00:40:37;;;;;;;15.10;9.47;;;-0.30;99.90;;;;;;5101781;28;20209;-43
2022/03/08 00:43:05;;;;;;;14.63;8.53;;;-0.30;99.90;;;;;;5103570;28;20251;-46
2022/03/08 00:45:34;;;;;;;13.97;8.63;;;-0.30;99.90;;;;;;5094947;28;20213;-43
2022/03/08 00:48:01;;;;;;;13.00;8.70;;;-0.30;99.90;;;;;;5102130;28;20218;-42
2022/03/08 00:50:29;;;;;;;15.00;9.47;;;-0.30;99.90;;;;;;5085139;28;20245;-41
2022/03/08 00:52:57;;;;;;;15.37;9.77;;;-0.30;99.90;;;;;;5103300;28;20217;-44
2022/03/08 00:55:27;;;;;;;19.10;9.37;;;-0.30;99.90;;;;;;5098447;28;20199;-42
2022/03/08 00:57:55;;;;;;;12.70;8.93;;;-0.30;99.90;;;;;;5103267;28;20693;-43
2022/03/08 01:00:24;;;;;;;14.23;8.83;;;-0.40;99.90;;;;;;5093635;28;20678;-43
2022/03/08 01:02:52;;;;;;;16.80;9.83;;;-0.40;99.90;;;;;;5103124;28;20723;-46
2022/03/08 01:05:19;;;;;;;17.43;10.20;;;-0.50;99.90;;;;;;5085894;28;20213;-43
2022/03/08 01:07:46;;;;;;;16.43;9.50;;;-0.50;99.90;;;;;;5100864;28;20206;-43
2022/03/08 01:10:23;;;;;;;14.13;9.67;;;-0.50;99.90;;;;;;5101619;28;20198;-43
2022/03/08 01:12:53;;;;;;;14.50;8.77;;;-0.60;99.90;;;;;;5102223;28;20235;-43
2022/03/08 01:15:21;;;;;;;15.50;9.53;;;-0.60;99.90;;;;;;5100235;28;20201;-42
2022/03/08 01:17:49;;;;;;;15.00;9.20;;;-0.60;99.90;;;;;;5096187;28;20221;-47
2022/03/08 01:20:16;;;;;;;15.47;8.83;;;-0.60;99.90;;;;;;5084177;28;20197;-44
2022/03/08 01:22:43;;;;;;;14.80;8.33;;;-0.60;99.90;;;;;;5102078;28;20221;-43
2022/03/08 01:25:14;;;;;;;14.63;9.40;;;-0.60;99.90;;;;;;5101892;28;20186;-43
2022/03/08 01:27:42;;;;;;;13.07;8.80;;;-0.60;99.90;;;;;;5100299;28;20197;-43
2022/03/08 01:30:13;;;;;;;10.23;7.53;;;-0.60;99.90;;;;;;5100712;28;20541;-43
2022/03/08 01:32:40;;;;;;;16.33;10.23;;;-0.60;99.90;;;;;;5093372;28;20968;-42
2022/03/08 01:35:08;;;;;;;16.23;9.70;;;-0.60;99.90;;;;;;5098118;28;20684;-43
2022/03/08 01:37:35;;;;;;;11.37;8.93;;;-0.70;99.90;;;;;;5091435;28;20269;-45
2022/03/08 01:40:02;;;;;;;15.93;9.83;;;-0.70;99.90;;;;;;5102923;28;20200;-45
2022/03/08 01:42:28;;;;;;;13.23;8.20;;;-0.80;99.90;;;;;;5099157;28;20208;-45
2022/03/08 01:44:56;;;;;;;12.67;9.17;;;-0.80;99.90;;;;;;5103283;28;20200;-43
2022/03/08 01:47:26;;;;;;;12.80;8.50;;;-0.80;99.90;;;;;;5091640;28;20200;-43
2022/03/08 01:49:55;;;;;;;16.77;8.60;;;-0.80;99.90;;;;;;5099974;28;20194;-44
2022/03/08 01:52:25;;;;;;;14.30;8.53;;;-0.90;99.90;;;;;;5081412;28;20217;-45
2022/03/08 01:54:53;;;;;;;14.83;8.27;;;-0.90;99.90;;;;;;5102926;28;20208;-44
2022/03/08 01:57:23;;;;;;;17.33;9.93;;;-0.90;99.90;;;;;;5098897;28;20712;-42
2022/03/08 01:59:51;;;;;;;17.00;10.03;;;-0.90;99.90;;;;;;5103095;28;20201;-42
2022/03/08 02:02:18;;;;;;;14.40;8.90;;;-0.80;99.90;;;;;;5094590;28;20222;-43
2022/03/08 02:04:46;;;;;;;14.73;9.07;;;-0.80;99.90;;;;;;5101210;28;20280;-44
2022/03/08 02:07:13;;;;;;;17.43;9.17;;;-0.80;99.90;;;;;;5085560;28;20204;-44
2022/03/08 02:09:40;;;;;;;12.47;8.00;;;-0.80;99.90;;;;;;5101044;28;20275;-43
2022/03/08 02:12:08;;;;;;;10.07;7.97;;;-0.80;99.90;;;;;;5101996;28;20686;-45
2022/03/08 02:14:35;;;;;;;11.27;7.77;;;-0.90;99.90;;;;;;5100292;28;20281;-47
2022/03/08 02:17:02;;;;;;;12.37;7.97;;;-0.90;99.90;;;;;;5102301;28;20213;-42
2022/03/08 02:19:29;;;;;;;12.33;8.00;;;-0.90;99.90;;;;;;5091985;28;20278;-45
2022/03/08 02:21:58;;;;;;;15.17;9.23;;;-0.90;99.90;;;;;;5102796;28;20687;-43
2022/03/08 02:24:24;;;;;;;14.87;8.97;;;-0.90;99.90;;;;;;5083292;28;20208;-44
2022/03/08 02:26:52;;;;;;;12.30;8.30;;;-1.00;99.90;;;;;;5102178;28;20194;-45
2022/03/08 02:29:19;;;;;;;14.53;8.13;;;-1.00;99.90;;;;;;5099564;28;20193;-46
2022/03/08 02:31:47;;;;;;;12.60;9.17;;;-1.00;99.90;;;;;;5102203;28;20221;-42
2022/03/08 02:34:15;;;;;;;12.50;8.33;;;-1.00;99.90;;;;;;5096280;28;20204;-43
2022/03/08 02:36:41;;;;;;;14.67;8.53;;;-1.00;99.90;;;;;;5098613;28;20291;-44
2022/03/08 02:39:32;;;;;;;11.87;8.07;;;-1.00;99.90;;;;;;5086859;28;20273;-45
2022/03/08 02:42:00;;;;;;;13.87;8.57;;;-1.10;99.90;;;;;;5102611;28;20213;-42
2022/03/08 02:44:27;;;;;;;10.93;7.87;;;-1.00;99.90;;;;;;5098459;28;20587;-42
2022/03/08 02:46:54;;;;;;;11.70;7.50;;;-1.10;99.90;;;;;;5101994;28;20198;-43
2022/03/08 02:49:21;;;;;;;13.63;7.93;;;-1.10;99.90;;;;;;5098354;28;20220;-45
2022/03/08 02:51:48;;;;;;;14.27;8.60;;;-1.10;99.90;;;;;;5090641;27;20766;-43
2022/03/08 02:54:15;;;;;;;11.43;7.97;;;-1.10;99.90;;;;;;5087242;27;20189;-42
2022/03/08 02:56:43;;;;;;;11.40;8.23;;;-1.10;99.90;;;;;;5104900;28;20299;-43
2022/03/08 02:59:10;;;;;;;11.80;7.97;;;-1.00;99.90;;;;;;5101375;28;20200;-45
2022/03/08 03:01:37;;;;;;;10.70;7.27;;;-1.00;99.90;;;;;;5106247;28;20218;-44
2022/03/08 03:04:04;;;;;;;10.30;7.33;;;-1.00;99.90;;;;;;5101355;28;20189;-43
2022/03/08 03:06:31;;;;;;;10.87;7.33;;;-1.10;99.90;;;;;;5098679;28;20204;-42
2022/03/08 03:08:58;;;;;;;10.23;7.27;;;-1.20;99.90;;;;;;5087433;28;20636;-43
2022/03/08 03:11:25;;;;;;;10.33;7.40;;;-1.20;99.90;;;;;;5105246;28;20320;-43
2022/03/08 03:13:53;;;;;;;12.40;7.60;;;-1.30;99.90;;;;;;5104235;28;20724;-42
2022/03/08 03:16:20;;;;;;;11.07;7.67;;;-1.30;99.90;;;;;;5103676;28;20196;-44
2022/03/08 03:18:46;;;;;;;9.83;6.23;;;-1.30;99.90;;;;;;5105073;28;20225;-44
2022/03/08 03:21:13;;;;;;;9.50;7.07;;;-1.30;99.90;;;;;;5103025;28;20201;-44
2022/03/08 03:23:40;;;;;;;10.50;7.23;;;-1.30;99.90;;;;;;5083885;28;20210;-43
2022/03/08 03:26:07;;;;;;;9.93;7.20;;;-1.40;99.90;;;;;;5100959;28;20196;-42
2022/03/08 03:28:34;;;;;;;9.70;7.07;;;-1.40;99.90;;;;;;5105617;28;20198;-42
2022/03/08 03:31:02;;;;;;;11.63;7.00;;;-1.40;99.90;;;;;;5102046;28;20198;-44
2022/03/08 03:33:29;;;;;;;8.77;6.70;;;-1.50;99.90;;;;;;5105579;28;20197;-44
2022/03/08 03:35:56;;;;;;;8.80;7.10;;;-1.50;99.90;;;;;;5102153;28;20205;-44
2022/03/08 03:38:24;;;;;;;13.97;7.67;;;-1.50;99.90;;;;;;5097165;28;20221;-42
2022/03/08 03:40:51;;;;;;;8.70;6.73;;;-1.40;99.90;;;;;;5089415;28;20206;-44
2022/03/08 03:43:18;;;;;;;11.10;7.57;;;-1.40;99.90;;;;;;5103055;28;20213;-46
2022/03/08 03:45:44;;;;;;;11.57;7.10;;;-1.40;99.90;;;;;;5104986;28;20223;-45
2022/03/08 03:48:12;;;;;;;9.97;6.47;;;-1.40;99.90;;;;;;5101559;28;20178;-43
2022/03/08 03:50:39;;;;;;;9.27;7.13;;;-1.40;99.90;;;;;;5105453;28;20206;-44
2022/03/08 03:53:06;;;;;;;7.57;6.77;;;-1.40;99.90;;;;;;5093354;28;20268;-41
2022/03/08 03:55:33;;;;;;;9.20;6.63;;;-1.50;99.90;;;;;;5087315;28;20206;-44
2022/03/08 03:58:00;;;;;;;10.00;6.53;;;-1.50;99.90;;;;;;5100575;28;20597;-45
2022/03/08 04:00:27;;;;;;;6.67;5.77;;;-1.60;99.90;;;;;;5104668;28;20204;-43
2022/03/08 04:02:54;;;;;;;7.70;6.40;;;-1.60;99.90;;;;;;5102298;28;20221;-43
2022/03/08 04:05:22;;;;;;;9.70;6.70;;;-1.60;99.90;;;;;;5103453;28;20826;-44
2022/03/08 04:07:50;;;;;;;11.23;7.97;;;-1.60;99.90;;;;;;5099619;28;20276;-43
2022/03/08 04:10:17;;;;;;;8.53;7.10;;;-1.50;99.90;;;;;;5095368;28;20186;-42
2022/03/08 04:12:44;;;;;;;10.50;6.93;;;-1.60;99.90;;;;;;5090241;28;20228;-43
2022/03/08 04:15:11;;;;;;;11.23;7.27;;;-1.60;99.90;;;;;;5100904;28;20189;-44
2022/03/08 04:17:38;;;;;;;7.87;6.37;;;-1.60;99.90;;;;;;5104019;28;20579;-46
2022/03/08 04:20:08;;;;;;;8.93;6.50;;;-1.60;99.90;;;;;;5100703;28;20204;-44
2022/03/08 04:22:36;;;;;;;8.53;6.00;;;-1.60;99.90;;;;;;5104430;28;20224;-45
2022/03/08 04:25:03;;;;;;;8.43;6.70;;;-1.60;99.90;;;;;;5093440;28;20205;-42
2022/03/08 04:27:30;;;;;;;9.73;6.40;;;-1.60;99.90;;;;;;5085681;28;20204;-44
2022/03/08 04:29:57;;;;;;;9.03;7.07;;;-1.60;99.90;;;;;;5101265;28;20194;-42
2022/03/08 04:32:25;;;;;;;7.83;6.50;;;-1.70;99.90;;;;;;5103667;28;20654;-44
2022/03/08 04:34:51;;;;;;;8.43;6.23;;;-1.70;99.90;;;;;;5102660;28;20197;-46
2022/03/08 04:37:18;;;;;;;10.83;7.07;;;-1.70;99.90;;;;;;5101735;28;20217;-43
2022/03/08 04:39:46;;;;;;;7.87;6.50;;;-1.70;99.90;;;;;;5101479;28;20269;-42
2022/03/08 04:42:13;;;;;;;8.40;7.00;;;-1.70;99.90;;;;;;5095737;28;20217;-42
2022/03/08 04:44:40;;;;;;;9.87;6.50;;;-1.70;99.90;;;;;;5089538;28;20232;-41
2022/03/08 04:47:07;;;;;;;8.43;6.70;;;-1.70;99.90;;;;;;5099278;28;20911;-41
2022/03/08 04:49:34;;;;;;;9.67;6.43;;;-1.70;99.90;;;;;;5104470;28;20204;-42
2022/03/08 04:52:01;;;;;;;8.37;6.97;;;-1.70;99.90;;;;;;5100583;28;20217;-43
2022/03/08 04:54:28;;;;;;;10.87;7.07;;;-1.70;99.90;;;;;;5103587;28;20666;-42
2022/03/08 04:56:57;;;;;;;13.00;7.33;;;-1.70;99.90;;;;;;5093984;28;20201;-43
2022/03/08 04:59:23;;;;;;;9.03;7.03;;;-1.70;99.90;;;;;;5086693;28;20205;-41
2022/03/08 05:01:50;;;;;;;9.70;7.03;;;-1.70;99.90;;;;;;5090736;28;20300;-43
2022/03/08 05:04:17;;;;;;;8.97;5.93;;;-1.70;99.90;;;;;;5102405;28;20193;-43
2022/03/08 05:06:45;;;;;;;9.00;6.33;;;-1.70;99.90;;;;;;5094347;28;20250;-42
2022/03/08 05:09:12;;;;;;;8.10;6.40;;;-1.70;99.90;;;;;;5102233;28;20185;-47
2022/03/08 05:11:40;;;;;;;12.63;6.97;;;-1.70;99.90;;;;;;5093461;28;20748;-45
2022/03/08 05:14:07;;;;;;;7.93;6.47;;;-1.80;99.90;;;;;;5088410;28;20201;-45
2022/03/08 05:16:35;;;;;;;8.03;6.40;;;-1.80;99.90;;;;;;5098649;28;20227;-41
2022/03/08 05:19:02;;;;;;;9.07;6.27;;;-1.90;99.90;;;;;;5103221;28;20322;-43
2022/03/08 05:21:29;;;;;;;9.43;6.63;;;-1.80;99.90;;;;;;5085250;28;20227;-44
2022/03/08 05:23:55;;;;;;;10.30;6.87;;;-1.90;99.90;;;;;;5099809;28;20193;-43
2022/03/08 05:26:22;;;;;;;10.87;6.60;;;-1.90;99.90;;;;;;5093902;28;20201;-43
2022/03/08 05:28:49;;;;;;;13.30;7.17;;;-1.90;99.90;;;;;;5096396;28;20213;-47
2022/03/08 05:31:17;;;;;;;9.83;6.90;;;-1.90;99.90;;;;;;5084978;28;20262;-43
2022/03/08 05:33:44;;;;;;;8.73;7.10;;;-1.90;99.90;;;;;;5102557;28;20201;-43
2022/03/08 05:36:11;;;;;;;9.10;6.90;;;-1.90;99.90;;;;;;5090490;28;20186;-46
2022/03/08 05:38:38;;;;;;;11.43;7.40;;;-1.90;99.90;;;;;;5102526;28;20220;-42
2022/03/08 05:41:05;;;;;;;11.10;7.47;;;-1.90;99.90;;;;;;5091780;28;20202;-46
2022/03/08 05:43:32;;;;;;;9.40;6.77;;;-1.90;99.90;;;;;;5095159;28;20575;-45
2022/03/08 05:45:59;;;;;;;11.37;7.93;;;-1.90;99.90;;;;;;5081731;28;20289;-42
2022/03/08 05:48:27;;;;;;;9.93;7.33;;;-1.90;99.90;;;;;;5101388;28;20249;-44
2022/03/08 05:50:54;;;;;;;9.37;7.67;;;-1.90;99.90;;;;;;5097334;28;20197;-43
2022/03/08 05:53:20;;;;;;;11.33;6.97;;;-1.90;99.90;;;;;;5094941;28;20220;-41
2022/03/08 05:55:48;;;;;;;11.23;8.00;;;-1.90;99.90;;;;;;5095197;28;20212;-41
2022/03/08 05:58:15;;;;;;;10.33;7.30;;;-1.90;99.90;;;;;;5084553;28;20255;-42
2022/03/08 06:00:42;;;;;;;10.80;6.77;;;-1.90;99.90;;;;;;5088722;28;20193;-42
2022/03/08 06:03:08;;;;;;;9.37;6.90;;;-1.90;99.90;;;;;;5091047;28;20218;-42
2022/03/08 06:05:36;;;;;;;11.00;7.93;;;-1.90;99.90;;;;;;5099366;28;20201;-43
2022/03/08 06:08:04;;;;;;;11.43;7.27;;;-1.90;99.90;;;;;;5088327;28;20194;-45
2022/03/08 06:10:32;;;;;;;13.90;7.50;;;-1.90;99.90;;;;;;5099058;28;20201;-42
2022/03/08 06:12:58;;;;;;;9.43;6.60;;;-1.90;99.90;;;;;;5095098;28;20217;-42
2022/03/08 06:15:25;;;;;;;9.73;6.70;;;-1.80;99.90;;;;;;5094353;28;20197;-43
2022/03/08 06:17:52;;;;;;;9.83;7.40;;;-1.80;99.90;;;;;;5086784;28;20218;-42
2022/03/08 06:20:20;;;;;;;16.53;7.93;;;-1.80;99.90;;;;;;5099554;28;20236;-42
2022/03/08 06:22:48;;;;;;;10.77;7.53;;;-1.80;99.90;;;;;;5092326;28;20675;-43
2022/03/08 06:25:15;;;;;;;10.03;7.60;;;-1.90;99.90;;;;;;5096035;28;20189;-44
2022/03/08 06:27:42;;;;;;;11.23;7.17;;;-1.80;99.90;;;;;;5103529;28;20185;-44
2022/03/08 06:30:10;;;;;;;9.97;6.60;;;-1.80;99.90;;;;;;5089436;28;20222;-44
2022/03/08 06:32:36;;;;;;;9.40;6.93;;;-1.80;99.90;;;;;;5092357;27;20236;-48
2022/03/08 06:35:03;;;;;;;9.27;7.00;;;-1.70;99.90;;;;;;5103300;28;20673;-43
2022/03/08 06:37:31;;;;;;;14.63;7.37;;;-1.70;99.90;;;;;;5104717;28;20189;-43
2022/03/08 06:39:59;;;;;;;11.67;7.33;;;-1.70;99.90;;;;;;5096682;28;20304;-43
2022/03/08 06:42:26;;;;;;;9.33;7.30;;;-1.70;99.90;;;;;;5100950;28;20216;-43
2022/03/08 06:44:53;;;;;;;12.77;7.77;;;-1.60;99.90;;;;;;5075234;27;20914;-45
2022/03/08 06:47:19;;;;;;;9.03;6.60;;;-1.60;99.90;;;;;;5099135;28;20215;-43
2022/03/08 06:49:46;;;;;;;10.60;6.90;;;-1.60;99.90;;;;;;5083884;27;20201;-42
2022/03/08 06:52:13;;;;;;;12.90;6.80;;;-1.50;99.90;;;;;;5110829;27;20300;-43
2022/03/08 06:54:40;;;;;;;10.10;7.23;;;-1.50;99.90;;;;;;5095244;27;20213;-43
2022/03/08 06:57:08;;;;;;;8.83;7.30;;;-1.40;99.90;;;;;;5102658;28;20258;-44
2022/03/08 06:59:36;;;;;;;10.50;6.97;;;-1.40;99.90;;;;;;5098057;28;20240;-43
2022/03/08 07:02:03;;;;;;;7.73;6.03;;;-1.30;99.90;;;;;;5099497;28;20225;-43
2022/03/08 07:04:29;;;;;;;8.90;6.40;;;-1.30;99.90;;;;;;5091422;28;20209;-41
2022/03/08 07:06:56;;;;;;;8.33;7.47;;;-1.20;99.90;;;;;;5097457;28;20197;-42
2022/03/08 07:09:24;;;;;;;9.70;6.57;;;-1.10;99.90;;;;;;5096154;28;20713;-43
2022/03/08 07:11:52;;;;;;;9.20;6.83;;;-1.10;99.90;;;;;;5101649;28;20843;-42
2022/03/08 07:14:20;;;;;;;11.37;7.00;;;-1.00;99.90;;;;;;5104082;28;20252;-41
2022/03/08 07:16:48;;;;;;;7.67;5.80;;;-1.00;99.90;;;;;;5093838;28;20284;-46
2022/03/08 07:19:16;;;;;;;11.40;7.20;;;-0.90;99.90;;;;;;5087498;28;20206;-46
2022/03/08 07:21:45;;;;;;;7.93;6.27;;;-0.70;99.90;;;;;;5100444;28;20803;-42
2022/03/08 07:24:12;;;;;;;9.63;6.63;;;-0.60;99.90;;;;;;5104789;28;20662;-46
2022/03/08 07:26:40;;;;;;;10.53;6.03;;;-0.50;99.90;;;;;;5096648;28;20673;-42
2022/03/08 07:29:07;;;;;;;8.60;6.53;;;-0.40;99.90;;;;;;5103869;28;20189;-43
2022/03/08 07:31:35;;;;;;;9.20;6.00;;;-0.30;99.90;;;;;;5097533;28;20239;-41
2022/03/08 07:34:02;;;;;;;10.13;5.23;;;-0.20;99.90;;;;;;5100941;28;20190;-46
2022/03/08 07:36:28;;;;;;;6.50;5.30;;;0.00;99.90;;;;;;5090170;28;20201;-42
2022/03/08 07:38:56;;;;;;;7.73;5.80;;;0.20;99.90;;;;;;5099791;28;20209;-46
2022/03/08 07:41:22;;;;;;;7.67;5.90;;;0.30;99.90;;;;;;5097256;28;20217;-42
2022/03/08 07:43:49;;;;;;;12.20;6.97;;;0.50;99.90;;;;;;5101100;28;20260;-44
2022/03/08 07:46:16;;;;;;;9.87;5.80;;;0.60;99.90;;;;;;5094033;28;20218;-44
2022/03/08 07:48:44;;;;;;;7.83;4.90;;;0.70;99.90;;;;;;5102905;28;20247;-41
2022/03/08 07:51:11;;;;;;;7.33;4.83;;;0.80;99.90;;;;;;5078186;28;20209;-42
2022/03/08 07:53:38;;;;;;;7.63;4.80;;;0.90;99.90;;;;;;5100527;28;20224;-42
2022/03/08 07:56:06;;;;;;;5.23;4.40;;;1.10;99.90;;;;;;5095683;28;20266;-44
2022/03/08 07:58:37;;;;;;;6.27;4.63;;;1.20;99.90;;;;;;5091679;28;20217;-41
2022/03/08 08:01:05;;;;;;;7.53;5.57;;;1.40;99.90;;;;;;5104233;27;20255;-42
2022/03/08 08:03:31;;;;;;;5.20;3.97;;;1.50;99.90;;;;;;5091395;28;20205;-42
2022/03/08 08:06:01;;;;;;;4.93;4.40;;;1.70;99.90;;;;;;5103290;28;20216;-41
2022/03/08 08:08:27;;;;;;;5.67;4.37;;;1.80;99.90;;;;;;5085849;28;20206;-42
2022/03/08 08:10:54;;;;;;;6.90;4.40;;;2.00;99.90;;;;;;5095785;28;20217;-43
2022/03/08 08:13:21;;;;;;;6.77;4.37;;;2.10;99.90;;;;;;5096347;28;20304;-47
2022/03/08 08:15:48;;;;;;;9.07;4.87;;;2.20;99.90;;;;;;5101833;28;20208;-42
2022/03/08 08:18:15;;;;;;;6.13;4.33;;;2.40;99.90;;;;;;5095576;28;20215;-42
2022/03/08 08:20:42;;;;;;;6.00;4.20;;;2.50;99.90;;;;;;5100238;28;20294;-47
2022/03/08 08:23:11;;;;;;;9.73;4.27;;;2.60;99.90;;;;;;5081562;28;20708;-41
2022/03/08 08:25:38;;;;;;;7.80;4.37;;;2.80;99.90;;;;;;5101121;28;20197;-43
2022/03/08 08:28:05;;;;;;;4.90;4.30;;;2.90;99.90;;;;;;5086341;28;20201;-41
2022/03/08 08:30:32;;;;;;;6.10;4.10;;;3.00;99.90;;;;;;5097578;28;20204;-46
2022/03/08 08:32:59;;;;;;;5.10;4.30;;;3.20;99.90;;;;;;5103230;28;20216;-45
2022/03/08 08:35:25;;;;;;;4.93;3.97;;;3.30;99.90;;;;;;5093734;28;20229;-47
2022/03/08 08:37:52;;;;;;;4.20;3.57;;;3.50;99.90;;;;;;5087598;28;20688;-43
2022/03/08 08:40:20;;;;;;;4.23;3.43;;;3.60;99.90;;;;;;5096688;28;20213;-42
2022/03/08 08:42:47;;;;;;;4.63;3.80;;;3.70;99.90;;;;;;5095794;28;20224;-42
2022/03/08 08:45:14;;;;;;;5.33;3.57;;;3.90;99.90;;;;;;5089444;28;20275;-42
2022/03/08 08:47:41;;;;;;;4.27;2.70;;;4.10;99.90;;;;;;5099945;28;20203;-41
2022/03/08 08:50:09;;;;;;;6.13;2.93;;;4.20;99.90;;;;;;5093963;28;20201;-41
2022/03/08 08:52:36;;;;;;;6.10;3.30;;;4.30;99.90;;;;;;5083740;28;20234;-42
2022/03/08 08:55:03;;;;;;;5.17;3.37;;;4.40;99.90;;;;;;5101731;28;20570;-42
2022/03/08 08:57:32;;;;;;;4.63;3.10;;;4.60;99.90;;;;;;5085752;28;20224;-44
2022/03/08 09:00:01;;;;;;;3.17;2.87;;;4.70;99.90;;;;;;5076225;28;20218;-47
2022/03/08 09:02:28;;;;;;;3.10;2.83;;;4.80;99.90;;;;;;5091907;28;20224;-42
2022/03/08 09:04:55;;;;;;;4.00;2.70;;;4.90;99.90;;;;;;5097667;27;20205;-42
2022/03/08 09:07:22;;;;;;;3.10;2.80;;;5.00;99.90;;;;;;5099171;27;20658;-49
2022/03/08 09:09:50;;;;;;;2.93;2.50;;;5.20;99.90;;;;;;5084825;28;20582;-41
2022/03/08 09:12:17;;;;;;;4.17;2.30;;;5.40;99.90;;;;;;5097000;28;20283;-44
2022/03/08 09:14:45;;;;;;;3.63;2.87;;;5.50;99.90;;;;;;5092499;28;20201;-44
2022/03/08 09:17:11;;;;;;;3.17;2.60;;;5.60;99.90;;;;;;5094664;28;20197;-46
2022/03/08 09:19:38;;;;;;;2.80;2.60;;;5.80;99.90;;;;;;5094464;28;20217;-44
2022/03/08 09:22:05;;;;;;;4.77;2.93;;;5.80;99.90;;;;;;5098563;28;20252;-42
2022/03/08 09:24:35;;;;;;;4.93;2.30;;;6.00;99.90;;;;;;5087920;28;20217;-41
2022/03/08 09:27:03;;;;;;;2.60;2.30;;;6.20;99.90;;;;;;5096037;28;20200;-41
2022/03/08 09:29:30;;;;;;;4.67;2.20;;;6.30;99.90;;;;;;5102818;28;20193;-41
2022/03/08 09:31:58;;;;;;;2.27;2.00;;;6.40;99.90;;;;;;5090290;28;20573;-43
2022/03/08 09:34:25;;;;;;;3.20;1.90;;;6.50;99.90;;;;;;5100867;28;20213;-42
2022/03/08 09:36:52;;;;;;;2.50;2.00;;;6.50;99.90;;;;;;5092498;28;20681;-42
2022/03/08 09:39:18;;;;;;;5.27;2.67;;;6.60;99.90;;;;;;5083367;28;20917;-42
2022/03/08 09:41:49;;;;;;;2.17;1.80;;;6.70;99.90;;;;;;5101115;28;20578;-41
2022/03/08 09:44:15;;;;;;;2.77;2.37;;;6.80;99.90;;;;;;5093267;28;20212;-41
2022/03/08 09:46:42;;;;;;;3.27;2.00;;;6.80;99.90;;;;;;5092335;28;20202;-41
2022/03/08 09:49:10;;;;;;;5.43;2.27;;;7.00;99.90;;;;;;5092206;28;20185;-42
2022/03/08 09:51:38;;;;;;;4.57;1.97;;;7.00;99.90;;;;;;5089140;28;20229;-43
2022/03/08 09:54:06;;;;;;;3.63;1.70;;;7.00;99.90;;;;;;5083605;28;20288;-43
2022/03/08 09:56:35;;;;;;;2.13;1.47;;;7.00;99.90;;;;;;5100558;28;20207;-41
2022/03/08 09:59:01;;;;;;;3.53;2.10;;;7.10;99.90;;;;;;5096026;28;20213;-41
2022/03/08 10:01:29;;;;;;;4.83;2.60;;;7.20;99.90;;;;;;5091272;28;20224;-42
2022/03/08 10:03:55;;;;;;;3.33;2.63;;;7.20;99.40;;;;;;5103131;28;21746;-43
2022/03/08 10:06:23;;;;;;;5.60;1.90;;;7.40;99.00;;;;;;5103818;28;20201;-42
2022/03/08 10:08:50;;;;;;;2.23;1.77;;;7.40;97.90;;;;;;5096647;28;20212;-41
2022/03/08 10:11:18;;;;;;;2.80;1.57;;;7.50;97.80;;;;;;5090148;28;20209;-41
2022/03/08 10:13:48;;;;;;;1.87;1.33;;;7.50;97.90;;;;;;5103222;28;20257;-44
2022/03/08 10:16:22;;;;;;;1.90;1.10;;;7.60;97.40;;;;;;5097064;28;20343;-41
2022/03/08 10:18:51;;;;;;;1.57;1.47;;;7.60;96.90;;;;;;5103877;28;20231;-41
2022/03/08 10:21:28;;;;;;;2.63;1.50;;;7.60;95.90;;;;;;5097029;28;20272;-44
2022/03/08 10:23:56;;;;;;;3.37;2.20;;;7.70;95.30;;;;;;5096122;28;20215;-42
2022/03/08 10:26:23;;;;;;;4.77;2.37;;;7.70;95.50;;;;;;5087485;28;20216;-43
2022/03/08 10:28:52;;;;;;;2.80;1.80;;;7.80;95.10;;;;;;5099843;28;20204;-41
2022/03/08 10:31:19;;;;;;;2.63;1.50;;;7.80;94.30;;;;;;5104223;28;20214;-41
2022/03/08 10:33:47;;;;;;;1.70;1.50;;;7.80;94.40;;;;;;5094697;28;20219;-43
2022/03/08 10:36:16;;;;;;;1.13;1.03;;;7.80;94.90;;;;;;5100070;28;20193;-41
2022/03/08 10:39:03;;;;;;;3.20;1.10;;;7.90;94.70;;;;;;5095949;28;20240;-43
2022/03/08 10:41:32;;;;;;;4.13;1.63;;;8.10;93.40;;;;;;5089973;28;20244;-42
2022/03/08 10:43:59;;;;;;;4.57;1.40;;;8.10;93.70;;;;;;5101107;28;20200;-41
2022/03/08 10:46:26;;;;;;;0.97;0.97;;;8.10;92.90;;;;;;5101827;28;20212;-40
2022/03/08 10:48:53;;;;;;;1.43;1.30;;;8.20;93.10;;;;;;5096920;28;20661;-39
2022/03/08 10:51:20;;;;;;;1.70;1.40;;;8.30;92.60;;;;;;5103950;28;20271;-40
2022/03/08 10:53:48;;;;;;;1.60;1.50;;;8.30;92.70;;;;;;5101223;28;20200;-41
2022/03/08 10:56:23;;;;;;;2.10;1.83;;;8.40;92.50;;;;;;5082413;28;20201;-42
2022/03/08 10:58:51;;;;;;;1.40;1.30;;;8.40;91.20;;;;;;5097539;28;20196;-39
2022/03/08 11:01:19;;;;;;;3.03;2.03;;;8.50;91.50;;;;;;5099615;28;20186;-40
2022/03/08 11:04:00;;;;;;;2.60;1.60;;;8.50;91.60;;;;;;5101819;28;20201;-39
2022/03/08 11:06:27;;;;;;;1.93;1.20;;;8.50;91.50;;;;;;5095416;28;20229;-39
2022/03/08 11:08:56;;;;;;;1.87;1.50;;;8.50;91.80;;;;;;5095437;28;20197;-41
2022/03/08 11:11:23;;;;;;;1.07;1.03;;;8.60;91.80;;;;;;5091070;28;20258;-40
2022/03/08 11:13:52;;;;;;;1.77;1.17;;;8.80;91.20;;;;;;5085618;28;20291;-40
2022/03/08 11:16:19;;;;;;;3.60;1.27;;;8.80;89.90;;;;;;5096072;28;20189;-41
2022/03/08 11:18:50;;;;;;;1.60;1.50;;;8.70;90.60;;;;;;5102167;28;20209;-40
2022/03/08 11:21:19;;;;;;;1.87;1.57;;;8.90;90.00;;;;;;5095194;28;20291;-40
2022/03/08 11:23:47;;;;;;;3.10;1.30;;;8.90;90.40;;;;;;5101421;28;20227;-40
2022/03/08 11:26:15;;;;;;;1.60;0.90;;;8.90;90.10;;;;;;5094516;28;20999;-39
2022/03/08 11:28:46;;;;;;;2.47;1.20;;;9.10;88.50;;;;;;5087636;28;20198;-40
2022/03/08 11:31:16;;;;;;;2.17;1.10;;;9.20;87.20;;;;;;5093913;28;20186;-40
2022/03/08 11:33:55;;;;;;;1.70;1.40;;;9.10;88.00;;;;;;5095505;28;20207;-39
2022/03/08 11:36:27;;;;;;;1.93;1.00;;;9.10;86.90;;;;;;5088418;28;20730;-41
2022/03/08 11:39:23;;;;;;;1.93;1.23;;;9.20;86.00;;;;;;5102997;28;20544;-42
2022/03/08 11:41:54;;;;;;;2.60;1.13;;;9.20;86.00;;;;;;5095856;28;20282;-42
2022/03/08 11:44:29;;;;;;;2.17;1.10;;;9.20;84.90;;;;;;5087633;27;20936;-39
2022/03/08 11:47:21;;;;;;;1.80;1.70;;;9.30;85.50;;;;;;5097274;28;20205;-40
2022/03/08 11:49:54;;;;;;;1.97;1.27;;;9.40;86.40;;;;;;5098688;28;20186;-49
2022/03/08 11:52:27;;;;;;;1.40;1.30;;;9.30;85.10;;;;;;5088072;28;20213;-40
2022/03/08 11:54:58;;;;;;;1.90;1.53;;;9.40;85.20;;;;;;5103368;28;20662;-39
2022/03/08 11:58:03;;;;;;;2.50;1.23;;;9.50;84.60;;;;;;5094220;28;20271;-41
2022/03/08 12:00:44;;;;;;;3.53;1.50;;;9.50;81.50;;;;;;5031262;28;20222;-40
2022/03/08 12:03:14;;;;;;;2.33;1.50;;;9.50;84.30;;;;;;5085312;28;20230;-41
2022/03/08 12:06:01;;;;;;;3.37;1.50;;;9.60;83.80;;;;;;5103668;28;20233;-43
2022/03/08 12:08:45;;;;;;;2.23;1.30;;;9.70;82.80;;;;;;5101651;28;20765;-42
2022/03/08 12:11:33;;;;;;;1.40;1.30;;;9.90;82.00;;;;;;5089273;27;20182;-41
2022/03/08 12:14:05;;;;;;;1.27;1.10;;;9.90;81.20;;;;;;5089660;27;20289;-41
2022/03/08 12:16:32;;;;;;;1.10;1.00;;;9.90;82.00;;;;;;5105818;27;20262;-43
2022/03/08 12:19:01;;;;;;;1.27;1.17;;;10.00;79.40;;;;;;5100260;27;20209;-40
2022/03/08 12:21:33;;;;;;;0.77;0.60;;;9.90;80.10;;;;;;5099490;27;20225;-41
2022/03/08 12:24:04;;;;;;;1.17;0.97;;;9.90;79.50;;;;;;5100817;28;20201;-40
2022/03/08 12:26:33;;;;;;;0.90;0.83;;;10.00;78.40;;;;;;5097517;28;20200;-40
2022/03/08 12:29:07;;;;;;;2.90;0.80;;;10.00;78.40;;;;;;5094562;28;20233;-41
2022/03/08 12:31:54;;;;;;;0.80;0.60;;;10.10;78.00;;;;;;5086951;28;20595;-40
2022/03/08 12:34:36;;;;;;;1.33;0.53;;;10.10;76.60;;;;;;5096775;28;20200;-42
2022/03/08 12:37:03;;;;;;;0.80;0.80;;;10.10;77.30;;;;;;5096476;28;20300;-39
2022/03/08 12:39:54;;;;;;;1.43;1.17;;;10.10;78.20;;;;;;5097191;28;20266;-41
2022/03/08 12:42:24;;;;;;;0.97;0.67;;;10.20;73.80;;;;;;5095383;28;20213;-42
2022/03/08 12:44:53;;;;;;;0.70;0.70;;;10.20;76.20;;;;;;5090165;28;20690;-40
2022/03/08 12:47:19;;;;;;;1.97;0.80;;;10.20;76.30;;;;;;5085899;28;20209;-39
2022/03/08 12:49:48;;;;;;;0.87;0.70;;;10.20;75.10;;;;;;5102597;28;20196;-39
2022/03/08 12:52:18;;;;;;;1.90;1.00;;;10.30;75.90;;;;;;5087238;28;20221;-40